Melbourne, FL

3:29 PM EDT on September 03, 2015 (GMT -0400)
Melbourne International | | Change Station
CLOSE
Current Station
Airport
Location: Melbourne,
Elevation: 33 ft
Nearby Weather Stations

Elev 33 ft 28.10 °N, 80.65 °W | Updated 36 minutes ago

Mostly Cloudy
Mostly Cloudy
89 °F
Feels Like 101 °F
N
8
Wind Variable Wind from East

Today
High -- | Low -- °F
--% Chance of Precip.
Yesterday
High -- | Low -- °F
Precip. -- in
7:01 AM 7:41 PM
Waning Gibbous, 67% visible
Pressure 29.94 in
Visibility 10.0 miles
Clouds Mostly Cloudy 4800 ft
Mostly Cloudy 7000 ft
Heat Index 101 °F
Dew Point 77 °F
Humidity 67%
Rainfall 0.00 in
Snow Depth Not available.
UV 7 out of 12
Pollen 7.00 out of 12
Air Quality Not available.
Flu Activity Not available.
METAR KMLB 031853Z 09007KT 10SM BKN048 BKN070 32/25 A2994 RMK AO2 SLP139 T03170250
Pressure 29.94 in
Visibility 10.0 miles
Clouds Mostly Cloudy 4800 ft
Mostly Cloudy 7000 ft
Heat Index 101 °F
Dew Point 77 °F
Humidity 67%
Rainfall 0.00 in
Snow Depth Not available.
UV 7 out of 12
Pollen 7.00 out of 12
Air Quality Not available.
Flu Activity Not available.
METAR KMLB 031853Z 09007KT 10SM BKN048 BKN070 32/25 A2994 RMK AO2 SLP139 T03170250
Nowcast | as of 1:49 PM EDT on September 3, 2015

Isolated to scattered showers and storms will develop and move eastward around 10 to 15 mph across portions of the region into mid afternoon. Best chance for this activity will be from Lake County eastward toward Volusia County and also near the East Coast...south of Melbourne. Any storms that develop will produce dangerous cloud to ground lightning...gusty winds up to 35 to 40 mph and locally heavy rainfall. Additional details...including graphics are available online at: http://www.Srh.NOAA.Gov/mlb/blog.Php

×

10-Day Weather Forecast

×

Almanac

Astronomy

Sep. 03, 2015 Rise Set
Actual Time
Civil Twilight
Nautical Twilight
Astronomical Twilight
Moon
Length of Visible Light
Length of Day
Tomorrow will be .
, % of the Moon is Illuminated

Today's Extremes

State Highs State Lows

Community

WunderPhotos

Upload Photos

1,852,014 photos uploaded!

WunderBlogs® & News

Nearby

Air Quality

  Air Quality AQ Index Pollutant
Not available.

Snow Depth

Station Depth Elevation

Earthquake Activity

City Distance Mag. Time & Date
Minimum magnitude displayed is 2.5.

Coastal Water Temperatures

Place Temperature

Stations

Nearby Weather Stations

Station Location Temp. Windchill Dew Point Humidity Wind Precip. Elev Updated Type